createdAt,value
2023-04-16T00:00:09.902Z,6.88
2023-04-16T00:02:41.341Z,6.84
2023-04-16T00:05:10.277Z,6.87
2023-04-16T00:07:38.409Z,6.88
2023-04-16T00:10:07.732Z,6.87
2023-04-16T00:12:36.516Z,6.91
2023-04-16T00:15:04.965Z,6.93
2023-04-16T00:17:34.465Z,6.91
2023-04-16T00:20:02.547Z,6.93
2023-04-16T00:22:30.656Z,6.95
2023-04-16T00:24:58.751Z,6.93
2023-04-16T00:27:26.863Z,6.91
2023-04-16T00:29:54.925Z,6.88
2023-04-16T00:32:23.030Z,6.91
2023-04-16T00:34:54.213Z,6.94
2023-04-16T00:37:22.473Z,6.90
2023-04-16T00:39:51.248Z,6.93
2023-04-16T00:42:19.465Z,6.90
2023-04-16T00:44:47.608Z,6.91
2023-04-16T00:47:16.051Z,6.91
2023-04-16T00:49:44.414Z,6.90
2023-04-16T00:52:13.983Z,6.83
2023-04-16T00:54:42.269Z,6.79
2023-04-16T00:57:11.121Z,6.79
2023-04-16T00:59:39.186Z,6.76
2023-04-16T01:02:08.360Z,6.77
2023-04-16T01:04:36.799Z,6.76
2023-04-16T01:07:04.945Z,6.77
2023-04-16T01:09:34.580Z,6.77
2023-04-16T01:12:04.427Z,6.71
2023-04-16T01:14:36.274Z,6.79
2023-04-16T01:17:04.456Z,6.76
2023-04-16T01:19:32.808Z,6.77
2023-04-16T01:22:02.542Z,6.80
2023-04-16T01:24:30.834Z,6.83
2023-04-16T01:26:59.439Z,6.81
2023-04-16T01:29:27.822Z,6.74
2023-04-16T01:31:58.472Z,6.71
2023-04-16T01:34:28.899Z,6.71
2023-04-16T01:36:56.981Z,6.77
2023-04-16T01:39:26.424Z,6.70
2023-04-16T01:41:54.256Z,6.73
2023-04-16T01:44:23.281Z,6.79
2023-04-16T01:46:51.395Z,6.81
2023-04-16T01:49:19.591Z,6.80
2023-04-16T01:51:47.850Z,6.74
2023-04-16T01:54:16.074Z,6.77
2023-04-16T01:56:46.207Z,6.79
2023-04-16T01:59:14.350Z,6.74
2023-04-16T02:01:43.580Z,6.76
2023-04-16T02:04:12.890Z,6.74
2023-04-16T02:06:41.199Z,6.70
2023-04-16T02:09:09.765Z,6.70
2023-04-16T02:11:39.238Z,6.73
2023-04-16T02:14:09.884Z,6.67
2023-04-16T02:16:37.996Z,6.70
2023-04-16T02:19:27.670Z,6.77
2023-04-16T02:21:56.114Z,6.76
2023-04-16T02:24:24.159Z,6.74
2023-04-16T02:26:52.367Z,6.74
2023-04-16T02:29:22.661Z,6.77
2023-04-16T02:31:57.772Z,6.76
2023-04-16T02:34:26.054Z,6.74
2023-04-16T02:36:55.196Z,6.80
2023-04-16T02:39:23.413Z,6.79
2023-04-16T02:41:52.497Z,6.77
2023-04-16T02:44:22.726Z,6.76
2023-04-16T02:46:50.973Z,6.87
2023-04-16T02:49:19.131Z,6.80
2023-04-16T02:51:47.183Z,6.76
2023-04-16T02:54:15.648Z,6.76
2023-04-16T02:56:44.417Z,6.73
2023-04-16T02:59:12.525Z,6.76
2023-04-16T03:01:42.138Z,6.74
2023-04-16T03:04:10.632Z,6.76
2023-04-16T03:06:41.236Z,6.76
2023-04-16T03:09:09.470Z,6.77
2023-04-16T03:11:37.995Z,6.71
2023-04-16T03:14:06.570Z,6.67
2023-04-16T03:16:34.649Z,6.67
2023-04-16T03:19:04.163Z,6.71
2023-04-16T03:21:32.557Z,6.69
2023-04-16T03:24:00.691Z,6.69
2023-04-16T03:26:28.875Z,6.66
2023-04-16T03:28:57.072Z,6.69
2023-04-16T03:31:25.686Z,6.64
2023-04-16T03:33:55.219Z,6.63
2023-04-16T03:36:25.476Z,6.64
2023-04-16T03:38:53.770Z,6.64
2023-04-16T03:41:22.037Z,6.64
2023-04-16T03:43:50.143Z,6.71
2023-04-16T03:46:18.179Z,6.70
2023-04-16T03:48:47.079Z,6.71
2023-04-16T03:51:15.460Z,6.71
2023-04-16T03:53:45.111Z,6.73
2023-04-16T03:56:14.955Z,6.77
2023-04-16T03:58:44.314Z,6.76
2023-04-16T04:01:12.204Z,6.79
2023-04-16T04:03:40.696Z,6.79
2023-04-16T04:06:09.574Z,6.79
2023-04-16T04:08:38.175Z,6.79
2023-04-16T04:11:08.881Z,6.85
2023-04-16T04:13:37.766Z,6.81
2023-04-16T04:16:06.869Z,6.77
2023-04-16T04:18:35.033Z,6.79
2023-04-16T04:21:07.252Z,6.84
2023-04-16T04:23:35.815Z,6.80
2023-04-16T04:26:07.459Z,6.81
2023-04-16T04:28:37.278Z,6.84
2023-04-16T04:31:06.345Z,6.83
2023-04-16T04:33:34.841Z,6.84
2023-04-16T04:36:03.362Z,6.85
2023-04-16T04:38:33.249Z,6.90
2023-04-16T04:41:01.704Z,6.85
2023-04-16T04:43:34.346Z,6.83
2023-04-16T04:46:04.244Z,6.81
2023-04-16T04:48:33.407Z,6.87
2023-04-16T04:51:02.987Z,6.85
2023-04-16T04:53:32.942Z,6.85
2023-04-16T04:56:09.157Z,6.87
2023-04-16T04:58:40.105Z,6.91
2023-04-16T05:01:09.784Z,6.93
2023-04-16T05:03:38.356Z,6.91
2023-04-16T05:06:06.915Z,6.91
2023-04-16T05:08:37.977Z,6.93
2023-04-16T05:11:06.458Z,6.93
2023-04-16T05:13:34.724Z,6.95
2023-04-16T05:16:02.860Z,6.93
2023-04-16T05:18:36.289Z,6.94
2023-04-16T05:21:04.587Z,6.93
2023-04-16T05:23:32.719Z,6.97
2023-04-16T05:26:00.777Z,6.98
2023-04-16T05:28:28.864Z,6.98
2023-04-16T05:30:56.978Z,7.02
2023-04-16T05:33:25.257Z,7.02
2023-04-16T05:35:54.863Z,6.95
2023-04-16T05:38:23.001Z,7.02
2023-04-16T05:40:50.998Z,7.01
2023-04-16T05:43:19.016Z,7.07
2023-04-16T05:45:47.059Z,7.07
2023-04-16T05:48:15.232Z,7.12
2023-04-16T05:50:44.497Z,7.19
2023-04-16T05:53:14.554Z,7.15
2023-04-16T05:55:42.858Z,7.18
2023-04-16T05:58:10.978Z,7.19
2023-04-16T06:00:39.092Z,7.21
2023-04-16T06:03:07.458Z,7.18
2023-04-16T06:05:35.920Z,7.21
2023-04-16T06:08:03.935Z,7.26
2023-04-16T06:10:33.673Z,7.26
2023-04-16T06:13:01.838Z,7.28
2023-04-16T06:15:30.341Z,7.39
2023-04-16T06:18:00.698Z,7.45
2023-04-16T06:20:29.228Z,7.41
2023-04-16T06:22:57.614Z,7.38
2023-04-16T06:25:25.798Z,7.41
2023-04-16T06:27:55.551Z,7.43
2023-04-16T06:30:23.636Z,7.46
2023-04-16T06:32:51.861Z,7.45
2023-04-16T06:35:20.798Z,7.45
2023-04-16T06:37:48.824Z,7.48
2023-04-16T06:40:17.061Z,7.56
2023-04-16T06:42:45.723Z,7.56
2023-04-16T06:45:15.535Z,7.63
2023-04-16T06:47:43.654Z,7.65
2023-04-16T06:50:12.338Z,7.66
2023-04-16T06:52:40.549Z,7.63
2023-04-16T06:55:10.198Z,7.61
2023-04-16T06:57:40.876Z,7.65
2023-04-16T07:00:10.268Z,7.66
2023-04-16T07:02:40.525Z,7.66
2023-04-16T07:05:09.164Z,7.67
2023-04-16T07:07:37.228Z,7.69
2023-04-16T07:10:05.915Z,7.66
2023-04-16T07:12:34.139Z,7.73
2023-04-16T07:15:02.639Z,7.77
2023-04-16T07:17:30.775Z,7.83
2023-04-16T07:20:00.665Z,7.83
2023-04-16T07:22:28.759Z,7.77
2023-04-16T07:24:57.214Z,7.76
2023-04-16T07:27:25.432Z,7.80
2023-04-16T07:29:54.920Z,7.82
2023-04-16T07:32:23.919Z,7.83
2023-04-16T07:34:52.190Z,7.86
2023-04-16T07:37:22.031Z,7.87
2023-04-16T07:39:51.997Z,7.86
2023-04-16T07:42:20.124Z,7.94
2023-04-16T07:44:48.281Z,7.87
2023-04-16T07:47:16.401Z,7.87
2023-04-16T07:49:44.529Z,7.93
2023-04-16T07:52:13.052Z,7.98
2023-04-16T07:54:42.620Z,7.97
2023-04-16T07:57:11.687Z,8.00
2023-04-16T07:59:39.948Z,8.01
2023-04-16T08:02:09.051Z,8.06
2023-04-16T08:04:37.584Z,7.96
2023-04-16T08:07:05.831Z,8.00
2023-04-16T08:09:35.058Z,8.07
2023-04-16T08:12:05.200Z,8.06
2023-04-16T08:14:33.620Z,8.00
2023-04-16T08:17:01.820Z,8.08
2023-04-16T08:19:30.097Z,8.06
2023-04-16T08:21:58.355Z,8.07
2023-04-16T08:24:27.220Z,8.03
2023-04-16T08:26:58.404Z,8.08
2023-04-16T08:29:32.105Z,8.13
2023-04-16T08:32:00.668Z,8.17
2023-04-16T08:34:28.804Z,8.16
2023-04-16T08:36:56.949Z,8.28
2023-04-16T08:39:25.064Z,8.28
2023-04-16T08:41:58.203Z,8.23
2023-04-16T08:44:28.816Z,8.24
2023-04-16T08:46:59.291Z,8.30
2023-04-16T08:49:28.299Z,8.30
2023-04-16T08:51:57.772Z,8.34
2023-04-16T08:54:36.077Z,8.30
2023-04-16T08:57:07.898Z,8.27
2023-04-16T08:59:36.647Z,8.37
2023-04-16T09:02:07.700Z,8.37
2023-04-16T09:04:39.173Z,8.40
2023-04-16T09:07:09.563Z,8.42
2023-04-16T09:09:39.856Z,8.41
2023-04-16T09:12:09.908Z,8.45
2023-04-16T09:14:41.881Z,8.56
2023-04-16T09:17:14.229Z,8.55
2023-04-16T09:19:42.356Z,8.62
2023-04-16T09:22:10.542Z,8.56
2023-04-16T09:24:39.318Z,8.58
2023-04-16T09:27:08.856Z,8.55
2023-04-16T09:29:37.736Z,8.68
2023-04-16T09:32:07.589Z,8.66
2023-04-16T09:34:55.766Z,8.76
2023-04-16T09:37:23.939Z,8.76
2023-04-16T09:39:56.910Z,8.79
2023-04-16T09:42:27.458Z,8.85
2023-04-16T09:44:59.379Z,9.06
2023-04-16T09:47:41.190Z,9.03
2023-04-16T09:50:17.804Z,9.12
2023-04-16T09:52:49.746Z,9.15
2023-04-16T09:55:19.243Z,9.15
2023-04-16T09:57:49.341Z,9.06
2023-04-16T10:00:20.223Z,9.03
2023-04-16T10:02:50.653Z,8.99
2023-04-16T10:05:21.402Z,8.97
2023-04-16T10:07:50.179Z,8.93
2023-04-16T10:10:18.619Z,8.83
2023-04-16T10:12:46.773Z,8.99
2023-04-16T10:15:15.067Z,9.07
2023-04-16T10:17:45.101Z,9.09
2023-04-16T10:20:14.228Z,9.12
2023-04-16T10:22:45.290Z,9.17
2023-04-16T10:25:14.033Z,9.12
2023-04-16T10:27:42.619Z,9.10
2023-04-16T10:30:13.227Z,9.22
2023-04-16T10:32:42.968Z,9.40
2023-04-16T10:35:15.920Z,9.43
2023-04-16T10:37:45.711Z,9.50
2023-04-16T10:40:24.864Z,9.43
2023-04-16T10:42:59.734Z,9.37
2023-04-16T10:45:31.794Z,9.36
2023-04-16T10:48:00.355Z,9.47
2023-04-16T10:50:36.624Z,9.62
2023-04-16T10:53:30.082Z,9.67
2023-04-16T10:56:13.905Z,9.85
2023-04-16T10:58:42.774Z,10.06
2023-04-16T11:01:17.142Z,10.18
2023-04-16T11:03:48.548Z,10.25
2023-04-16T11:06:18.615Z,10.29
2023-04-16T11:08:54.659Z,10.36
2023-04-16T11:11:24.246Z,10.25
2023-04-16T11:13:57.268Z,10.28
2023-04-16T11:16:27.474Z,10.23
2023-04-16T11:18:57.241Z,10.11
2023-04-16T11:21:27.176Z,10.09
2023-04-16T11:23:59.643Z,10.02
2023-04-16T11:26:31.522Z,9.92
2023-04-16T11:29:00.319Z,9.89
2023-04-16T11:31:28.709Z,9.97
2023-04-16T11:33:58.022Z,10.23
2023-04-16T11:36:27.821Z,10.84
2023-04-16T11:39:04.743Z,11.36
2023-04-16T11:41:32.877Z,11.49
2023-04-16T11:44:01.484Z,11.83
2023-04-16T11:46:39.775Z,12.17
2023-04-16T11:49:08.115Z,12.29
2023-04-16T11:51:41.319Z,12.31
2023-04-16T11:54:12.301Z,12.37
2023-04-16T11:56:54.367Z,12.61
2023-04-16T11:59:24.023Z,12.84
2023-04-16T12:01:53.377Z,12.95
2023-04-16T12:04:22.500Z,13.25
2023-04-16T12:07:06.325Z,13.52
2023-04-16T12:09:39.526Z,13.06
2023-04-16T12:12:26.886Z,12.45
2023-04-16T12:14:57.051Z,12.12
2023-04-16T12:17:25.376Z,12.27
2023-04-16T12:19:56.866Z,12.68
2023-04-16T12:22:30.078Z,12.96
2023-04-16T12:25:04.437Z,13.80
2023-04-16T12:27:52.796Z,13.74
2023-04-16T12:30:22.559Z,13.94
2023-04-16T12:32:51.896Z,14.17
2023-04-16T12:35:31.168Z,13.84
2023-04-16T12:37:59.474Z,13.63
2023-04-16T12:40:28.848Z,13.54
2023-04-16T12:42:56.991Z,13.27
2023-04-16T12:45:27.325Z,13.05
2023-04-16T12:47:55.865Z,12.91
2023-04-16T12:50:24.160Z,12.84
2023-04-16T12:52:52.925Z,12.74
2023-04-16T12:55:22.432Z,12.67
2023-04-16T12:57:53.063Z,12.65
2023-04-16T13:00:21.622Z,12.55
2023-04-16T13:02:51.148Z,12.36
2023-04-16T13:05:19.780Z,12.24
2023-04-16T13:07:48.038Z,12.14
2023-04-16T13:10:16.956Z,12.16
2023-04-16T13:12:46.766Z,12.10
2023-04-16T13:15:16.320Z,12.03
2023-04-16T13:17:44.285Z,12.23
2023-04-16T13:20:12.434Z,12.33
2023-04-16T13:22:40.377Z,12.30
2023-04-16T13:25:09.476Z,12.24
2023-04-16T13:27:37.685Z,12.19
2023-04-16T13:30:05.978Z,12.14
2023-04-16T13:32:35.587Z,11.96
2023-04-16T13:35:03.593Z,12.04
2023-04-16T13:37:31.590Z,12.17
2023-04-16T13:39:59.462Z,12.07
2023-04-16T13:42:28.494Z,11.89
2023-04-16T13:44:58.269Z,11.62
2023-04-16T13:47:26.444Z,11.38
2023-04-16T13:49:55.876Z,11.39
2023-04-16T13:52:23.706Z,11.48
2023-04-16T13:54:51.691Z,11.59
2023-04-16T13:57:22.220Z,11.76
2023-04-16T13:59:50.275Z,11.81
2023-04-16T14:02:18.411Z,11.90
2023-04-16T14:04:48.835Z,11.83
2023-04-16T14:07:19.812Z,11.89
2023-04-16T14:09:47.792Z,11.89
2023-04-16T14:12:16.560Z,11.97
2023-04-16T14:14:44.461Z,12.16
2023-04-16T14:17:12.542Z,12.30
2023-04-16T14:19:40.627Z,12.33
2023-04-16T14:22:09.576Z,12.45
2023-04-16T14:24:40.091Z,12.51
2023-04-16T14:27:08.757Z,12.31
2023-04-16T14:29:38.426Z,12.29
2023-04-16T14:32:07.963Z,12.20
2023-04-16T14:34:36.441Z,11.94
2023-04-16T14:37:04.459Z,12.00
2023-04-16T14:39:32.730Z,12.06
2023-04-16T14:42:02.083Z,11.96
2023-04-16T14:44:30.029Z,12.03
2023-04-16T14:46:58.042Z,12.00
2023-04-16T14:49:26.734Z,12.13
2023-04-16T14:51:54.581Z,12.20
2023-04-16T14:54:22.624Z,12.29
2023-04-16T14:56:52.248Z,12.48
2023-04-16T14:59:22.120Z,12.64
2023-04-16T15:01:50.071Z,12.88
2023-04-16T15:04:18.384Z,12.91
2023-04-16T15:07:07.633Z,13.02
2023-04-16T15:09:35.768Z,12.99
2023-04-16T15:12:04.393Z,12.84
2023-04-16T15:14:33.845Z,12.87
2023-04-16T15:17:01.773Z,13.20
2023-04-16T15:19:29.850Z,13.09
2023-04-16T15:21:57.678Z,13.29
2023-04-16T15:24:26.118Z,13.56
2023-04-16T15:26:54.323Z,13.47
2023-04-16T15:29:22.582Z,13.38
2023-04-16T15:31:52.098Z,13.16
2023-04-16T15:34:20.181Z,12.87
2023-04-16T15:36:48.856Z,12.45
2023-04-16T15:39:17.340Z,12.50
2023-04-16T15:42:00.430Z,12.63
2023-04-16T15:44:38.740Z,12.57
2023-04-16T15:47:08.785Z,12.37
2023-04-16T15:49:37.111Z,12.44
2023-04-16T15:52:05.825Z,12.12
2023-04-16T15:54:34.140Z,12.14
2023-04-16T15:57:02.044Z,12.02
2023-04-16T15:59:30.687Z,12.09
2023-04-16T16:01:59.260Z,12.12
2023-04-16T16:04:28.708Z,11.97
2023-04-16T16:06:57.666Z,11.79
2023-04-16T16:09:27.066Z,11.73
2023-04-16T16:11:55.578Z,11.62
2023-04-16T16:14:23.623Z,11.39
2023-04-16T16:16:51.711Z,11.55
2023-04-16T16:19:19.882Z,11.76
2023-04-16T16:21:49.354Z,11.87
2023-04-16T16:24:17.311Z,12.07
2023-04-16T16:26:45.557Z,12.22
2023-04-16T16:29:13.513Z,12.29
2023-04-16T16:31:41.451Z,12.29
2023-04-16T16:34:14.763Z,12.29
2023-04-16T16:36:50.081Z,12.23
2023-04-16T16:39:18.162Z,12.04
2023-04-16T16:41:47.859Z,11.87
2023-04-16T16:44:15.867Z,11.81
2023-04-16T16:46:44.139Z,11.66
2023-04-16T16:49:12.349Z,11.52
2023-04-16T16:51:40.564Z,11.54
2023-04-16T16:54:09.709Z,11.39
2023-04-16T16:56:37.708Z,11.36
2023-04-16T16:59:06.205Z,11.28
2023-04-16T17:01:34.327Z,11.22
2023-04-16T17:04:02.665Z,11.12
2023-04-16T17:06:31.765Z,11.12
2023-04-16T17:08:59.774Z,11.15
2023-04-16T17:11:29.412Z,11.03
2023-04-16T17:13:57.286Z,11.01
2023-04-16T17:16:25.278Z,10.99
2023-04-16T17:18:53.304Z,10.91
2023-04-16T17:21:21.744Z,10.96
2023-04-16T17:23:49.868Z,10.89
2023-04-16T17:26:17.891Z,10.87
2023-04-16T17:28:47.225Z,10.87
2023-04-16T17:31:15.234Z,10.81
2023-04-16T17:33:43.579Z,10.81
2023-04-16T17:36:11.396Z,10.79
2023-04-16T17:38:39.448Z,10.76
2023-04-16T17:41:07.302Z,10.80
2023-04-16T17:43:35.289Z,10.73
2023-04-16T17:46:05.026Z,10.71
2023-04-16T17:48:33.060Z,10.73
2023-04-16T17:51:00.884Z,10.60
2023-04-16T17:53:28.795Z,10.60
2023-04-16T17:55:57.097Z,10.56
2023-04-16T17:58:26.478Z,10.48
2023-04-16T18:00:54.226Z,10.46
2023-04-16T18:03:23.554Z,10.48
2023-04-16T18:05:51.519Z,10.45
2023-04-16T18:08:19.890Z,10.45
2023-04-16T18:10:47.794Z,10.38
2023-04-16T18:13:15.718Z,10.36
2023-04-16T18:15:43.606Z,10.35
2023-04-16T18:18:11.512Z,10.32
2023-04-16T18:20:41.098Z,10.33
2023-04-16T18:23:08.968Z,10.29
2023-04-16T18:25:36.929Z,10.28
2023-04-16T18:28:06.466Z,10.25
2023-04-16T18:30:34.795Z,10.19
2023-04-16T18:35:34.164Z,10.18
2023-04-16T18:38:04.340Z,10.15
2023-04-16T18:40:34.698Z,10.15
2023-04-16T18:43:02.756Z,10.12
2023-04-16T18:45:30.927Z,10.16
2023-04-16T18:47:59.705Z,10.19
2023-04-16T18:50:27.631Z,10.15
2023-04-16T18:52:55.621Z,10.16
2023-04-16T18:55:25.002Z,10.13
2023-04-16T18:57:53.207Z,10.08
2023-04-16T19:00:21.232Z,10.02
2023-04-16T19:02:49.109Z,10.05
2023-04-16T19:05:17.134Z,10.06
2023-04-16T19:07:44.979Z,10.01
2023-04-16T19:10:12.958Z,9.99
2023-04-16T19:12:42.229Z,9.99
2023-04-16T19:15:10.326Z,9.98
2023-04-16T19:17:39.667Z,9.95
2023-04-16T19:20:11.371Z,9.95
2023-04-16T19:22:39.497Z,10.02
2023-04-16T19:25:07.813Z,9.98
2023-04-16T19:27:36.356Z,10.01
2023-04-16T19:30:06.770Z,9.94
2023-04-16T19:32:35.105Z,9.88
2023-04-16T19:35:03.265Z,9.91
2023-04-16T19:37:31.191Z,9.88
2023-04-16T19:39:59.823Z,9.82
2023-04-16T19:42:27.860Z,9.85
2023-04-16T19:44:55.770Z,9.92
2023-04-16T19:47:25.278Z,9.84
2023-04-16T19:49:53.292Z,9.87
2023-04-16T19:52:21.161Z,9.84
2023-04-16T19:54:49.057Z,9.75
2023-04-16T19:57:17.256Z,9.77
2023-04-16T19:59:45.208Z,9.74
2023-04-16T20:02:13.125Z,9.73
2023-04-16T20:04:46.754Z,9.71
2023-04-16T20:07:14.681Z,9.67
2023-04-16T20:09:42.643Z,9.67
2023-04-16T20:12:11.079Z,9.70
2023-04-16T20:14:39.566Z,9.67
2023-04-16T20:17:10.244Z,9.68
2023-04-16T20:19:39.424Z,9.67
2023-04-16T20:22:08.859Z,9.71
2023-04-16T20:24:38.605Z,9.67
2023-04-16T20:27:06.716Z,9.61
2023-04-16T20:29:34.702Z,9.62
2023-04-16T20:32:02.469Z,9.60
2023-04-16T20:34:30.357Z,9.61
2023-04-16T20:36:58.531Z,9.58
2023-04-16T20:39:28.070Z,9.60
2023-04-16T20:41:57.816Z,9.52
2023-04-16T20:44:33.080Z,9.60
2023-04-16T20:47:01.145Z,9.58
2023-04-16T20:49:37.732Z,9.61
2023-04-16T20:52:07.339Z,9.55
2023-04-16T20:54:36.860Z,9.54
2023-04-16T20:57:05.160Z,9.54
2023-04-16T20:59:59.656Z,9.57
2023-04-16T21:02:28.454Z,9.54
2023-04-16T21:04:56.714Z,9.51
2023-04-16T21:07:49.964Z,9.50
2023-04-16T21:10:20.502Z,9.46
2023-04-16T21:12:48.676Z,9.51
2023-04-16T21:15:16.697Z,9.50
2023-04-16T21:17:44.885Z,9.50
2023-04-16T21:20:14.135Z,9.55
2023-04-16T21:22:42.092Z,9.51
2023-04-16T21:25:10.561Z,9.46
2023-04-16T21:27:39.931Z,9.50
2023-04-16T21:30:08.580Z,9.47
2023-04-16T21:32:36.661Z,9.43
2023-04-16T21:35:05.015Z,9.36
2023-04-16T21:37:32.917Z,9.38
2023-04-16T21:40:00.896Z,9.37
2023-04-16T21:42:28.856Z,9.36
2023-04-16T21:44:58.553Z,9.34
2023-04-16T21:47:26.607Z,9.38
2023-04-16T21:49:54.575Z,9.41
2023-04-16T21:52:22.645Z,9.38
2023-04-16T21:54:51.025Z,9.38
2023-04-16T21:57:19.008Z,9.34
2023-04-16T21:59:47.088Z,9.40
2023-04-16T22:02:16.670Z,9.38
2023-04-16T22:04:44.577Z,9.31
2023-04-16T22:07:12.882Z,9.36
2023-04-16T22:09:41.608Z,9.29
2023-04-16T22:12:10.388Z,9.30
2023-04-16T22:14:42.139Z,9.30
2023-04-16T22:17:17.169Z,9.29
2023-04-16T22:19:46.574Z,9.24
2023-04-16T22:22:14.651Z,9.29
2023-04-16T22:24:43.321Z,9.23
2023-04-16T22:27:11.099Z,9.17
2023-04-16T22:29:38.899Z,9.19
2023-04-16T22:32:07.106Z,9.19
2023-04-16T22:34:35.136Z,9.17
2023-04-16T22:37:05.152Z,9.16
2023-04-16T22:39:33.049Z,9.22
2023-04-16T22:42:00.907Z,9.27
2023-04-16T22:44:28.798Z,9.22
2023-04-16T22:46:56.732Z,9.20
2023-04-16T22:49:24.642Z,9.20
2023-04-16T22:51:52.468Z,9.12
2023-04-16T22:54:21.911Z,9.17
2023-04-16T22:56:50.074Z,9.19
2023-04-16T22:59:18.057Z,9.17
2023-04-16T23:01:46.107Z,9.24
2023-04-16T23:04:14.193Z,9.20
2023-04-16T23:06:42.250Z,9.23
2023-04-16T23:09:10.567Z,9.29
2023-04-16T23:11:40.109Z,9.27
2023-04-16T23:14:08.387Z,9.24
2023-04-16T23:16:36.336Z,9.23
2023-04-16T23:19:05.037Z,9.22
2023-04-16T23:21:33.059Z,9.20
2023-04-16T23:24:00.887Z,9.27
2023-04-16T23:26:28.886Z,9.27
2023-04-16T23:28:58.335Z,9.20
2023-04-16T23:31:26.381Z,9.27
2023-04-16T23:33:54.353Z,9.22
2023-04-16T23:36:22.261Z,9.17
2023-04-16T23:38:50.427Z,9.06
2023-04-16T23:41:18.816Z,8.99
2023-04-16T23:43:46.861Z,8.97
2023-04-16T23:46:16.308Z,9.00
2023-04-16T23:48:44.594Z,8.90
2023-04-16T23:51:12.517Z,8.86
2023-04-16T23:53:40.886Z,8.80
2023-04-16T23:56:11.098Z,8.79
2023-04-16T23:58:39.157Z,8.78
